sensor_id;sensor_type;location;lat;lon;timestamp;temperature;humidity
5962;DHT22;3007;50.770;0.250;2023-01-23T10:03:00;3.30;99.90
5962;DHT22;3007;50.770;0.250;2023-01-23T10:05:31;3.30;99.90
5962;DHT22;3007;50.770;0.250;2023-01-23T10:08:09;3.30;99.90
5962;DHT22;3007;50.770;0.250;2023-01-23T10:10:57;3.30;99.90
5962;DHT22;3007;50.770;0.250;2023-01-23T10:13:35;3.30;99.90
5962;DHT22;3007;50.770;0.250;2023-01-23T10:16:41;3.40;99.90
5962;DHT22;3007;50.770;0.250;2023-01-23T10:19:30;3.40;99.90
5962;DHT22;3007;50.770;0.250;2023-01-23T10:22:04;3.40;99.90
5962;DHT22;3007;50.770;0.250;2023-01-23T10:24:43;3.40;99.90
5962;DHT22;3007;50.770;0.250;2023-01-23T10:27:17;3.40;99.90
5962;DHT22;3007;50.770;0.250;2023-01-23T10:29:48;3.40;99.90
5962;DHT22;3007;50.770;0.250;2023-01-23T10:32:23;3.40;99.90
5962;DHT22;3007;50.770;0.250;2023-01-23T10:34:57;3.40;99.90
5962;DHT22;3007;50.770;0.250;2023-01-23T10:37:38;3.40;99.90
5962;DHT22;3007;50.770;0.250;2023-01-23T10:40:11;3.40;99.90
5962;DHT22;3007;50.770;0.250;2023-01-23T10:42:39;3.40;99.90
5962;DHT22;3007;50.770;0.250;2023-01-23T10:45:16;3.40;99.90
5962;DHT22;3007;50.770;0.250;2023-01-23T10:47:45;3.40;99.90
5962;DHT22;3007;50.770;0.250;2023-01-23T10:50:33;3.40;99.90
5962;DHT22;3007;50.770;0.250;2023-01-23T10:53:05;3.40;99.90
5962;DHT22;3007;50.770;0.250;2023-01-23T10:55:33;3.50;99.90
5962;DHT22;3007;50.770;0.250;2023-01-23T10:58:00;3.40;99.90
5962;DHT22;3007;50.770;0.250;2023-01-23T11:00:35;3.40;99.90
5962;DHT22;3007;50.770;0.250;2023-01-23T11:03:25;3.50;99.90
5962;DHT22;3007;50.770;0.250;2023-01-23T11:05:55;3.50;99.90
5962;DHT22;3007;50.770;0.250;2023-01-23T11:08:27;3.40;99.90
5962;DHT22;3007;50.770;0.250;2023-01-23T11:11:20;3.50;99.90
5962;DHT22;3007;50.770;0.250;2023-01-23T11:13:49;3.50;99.90
5962;DHT22;3007;50.770;0.250;2023-01-23T11:16:18;3.50;99.90
5962;DHT22;3007;50.770;0.250;2023-01-23T11:18:51;3.50;99.90
5962;DHT22;3007;50.770;0.250;2023-01-23T11:21:20;3.50;99.90
5962;DHT22;3007;50.770;0.250;2023-01-23T11:23:47;3.50;99.90
5962;DHT22;3007;50.770;0.250;2023-01-23T11:26:30;3.50;99.90
5962;DHT22;3007;50.770;0.250;2023-01-23T11:28:57;3.50;99.90
5962;DHT22;3007;50.770;0.250;2023-01-23T11:31:25;3.50;99.90
5962;DHT22;3007;50.770;0.250;2023-01-23T11:33:57;3.50;99.90
5962;DHT22;3007;50.770;0.250;2023-01-23T11:36:38;3.50;99.90
5962;DHT22;3007;50.770;0.250;2023-01-23T11:39:17;3.50;99.90
5962;DHT22;3007;50.770;0.250;2023-01-23T11:41:47;3.50;99.90
5962;DHT22;3007;50.770;0.250;2023-01-23T11:44:17;3.50;99.90
5962;DHT22;3007;50.770;0.250;2023-01-23T11:49:58;3.60;99.90
5962;DHT22;3007;50.770;0.250;2023-01-23T11:52:36;3.60;99.90
5962;DHT22;3007;50.770;0.250;2023-01-23T11:55:19;3.60;99.90
5962;DHT22;3007;50.770;0.250;2023-01-23T11:57:59;3.60;99.90
5962;DHT22;3007;50.770;0.250;2023-01-23T12:00:33;3.50;99.90
5962;DHT22;3007;50.770;0.250;2023-01-23T12:03:30;3.60;99.90
5962;DHT22;3007;50.770;0.250;2023-01-23T12:06:09;3.60;99.90
5962;DHT22;3007;50.770;0.250;2023-01-23T12:08:44;3.60;99.90
5962;DHT22;3007;50.770;0.250;2023-01-23T12:11:16;3.60;99.90
5962;DHT22;3007;50.770;0.250;2023-01-23T12:14:01;3.60;99.90
5962;DHT22;3007;50.770;0.250;2023-01-23T12:16:39;3.50;99.90
5962;DHT22;3007;50.770;0.250;2023-01-23T12:19:21;3.50;99.90
5962;DHT22;3007;50.770;0.250;2023-01-23T12:21:58;3.50;99.90
5962;DHT22;3007;50.770;0.250;2023-01-23T12:24:39;3.50;99.90
5962;DHT22;3007;50.770;0.250;2023-01-23T12:27:18;3.50;99.90
5962;DHT22;3007;50.770;0.250;2023-01-23T12:30:09;3.50;99.90
5962;DHT22;3007;50.770;0.250;2023-01-23T12:32:52;3.50;99.90
5962;DHT22;3007;50.770;0.250;2023-01-23T12:35:34;3.60;99.90
5962;DHT22;3007;50.770;0.250;2023-01-23T12:38:27;3.60;99.90
5962;DHT22;3007;50.770;0.250;2023-01-23T12:41:07;3.60;99.90
5962;DHT22;3007;50.770;0.250;2023-01-23T12:43:42;3.60;99.90
5962;DHT22;3007;50.770;0.250;2023-01-23T12:46:16;3.50;99.90
5962;DHT22;3007;50.770;0.250;2023-01-23T12:48:49;3.60;99.90
5962;DHT22;3007;50.770;0.250;2023-01-23T12:51:20;3.60;99.90
5962;DHT22;3007;50.770;0.250;2023-01-23T12:53:51;3.60;99.90
5962;DHT22;3007;50.770;0.250;2023-01-23T12:56:24;3.60;99.90
5962;DHT22;3007;50.770;0.250;2023-01-23T12:58:59;3.60;99.90
5962;DHT22;3007;50.770;0.250;2023-01-23T13:01:45;3.60;99.90
5962;DHT22;3007;50.770;0.250;2023-01-23T13:04:28;3.60;99.90
5962;DHT22;3007;50.770;0.250;2023-01-23T13:07:08;3.70;99.90
5962;DHT22;3007;50.770;0.250;2023-01-23T13:09:49;3.70;99.90
5962;DHT22;3007;50.770;0.250;2023-01-23T13:12:22;3.70;99.90
5962;DHT22;3007;50.770;0.250;2023-01-23T13:14:51;3.80;99.90
5962;DHT22;3007;50.770;0.250;2023-01-23T13:17:34;3.80;99.90
5962;DHT22;3007;50.770;0.250;2023-01-23T13:20:19;3.80;99.90
5962;DHT22;3007;50.770;0.250;2023-01-23T13:23:21;3.80;99.90
5962;DHT22;3007;50.770;0.250;2023-01-23T13:25:49;3.90;99.90
5962;DHT22;3007;50.770;0.250;2023-01-23T13:28:28;3.80;99.90
5962;DHT22;3007;50.770;0.250;2023-01-23T13:30:59;3.80;99.90
5962;DHT22;3007;50.770;0.250;2023-01-23T13:33:52;3.80;99.90
5962;DHT22;3007;50.770;0.250;2023-01-23T13:36:28;3.80;99.90
5962;DHT22;3007;50.770;0.250;2023-01-23T13:39:20;3.80;99.90
5962;DHT22;3007;50.770;0.250;2023-01-23T13:41:49;3.80;99.90
5962;DHT22;3007;50.770;0.250;2023-01-23T13:44:22;3.80;99.90
5962;DHT22;3007;50.770;0.250;2023-01-23T13:47:03;3.80;99.90
5962;DHT22;3007;50.770;0.250;2023-01-23T13:50:04;3.80;99.90
5962;DHT22;3007;50.770;0.250;2023-01-23T13:52:38;3.80;99.90
5962;DHT22;3007;50.770;0.250;2023-01-23T13:55:25;3.70;99.90
5962;DHT22;3007;50.770;0.250;2023-01-23T13:58:13;3.70;99.90
5962;DHT22;3007;50.770;0.250;2023-01-23T14:00:44;3.80;99.90
5962;DHT22;3007;50.770;0.250;2023-01-23T14:03:34;3.80;99.90
5962;DHT22;3007;50.770;0.250;2023-01-23T14:06:30;3.80;99.90
5962;DHT22;3007;50.770;0.250;2023-01-23T14:08:57;3.70;99.90
5962;DHT22;3007;50.770;0.250;2023-01-23T14:11:33;3.70;99.90
5962;DHT22;3007;50.770;0.250;2023-01-23T14:14:02;3.80;99.90
5962;DHT22;3007;50.770;0.250;2023-01-23T14:16:47;3.70;99.90
5962;DHT22;3007;50.770;0.250;2023-01-23T14:19:22;3.80;99.90
5962;DHT22;3007;50.770;0.250;2023-01-23T14:21:54;3.80;99.90
5962;DHT22;3007;50.770;0.250;2023-01-23T14:24:22;3.80;99.90
5962;DHT22;3007;50.770;0.250;2023-01-23T14:26:52;3.70;99.90
5962;DHT22;3007;50.770;0.250;2023-01-23T14:29:21;3.70;99.90
5962;DHT22;3007;50.770;0.250;2023-01-23T14:31:48;3.70;99.90
5962;DHT22;3007;50.770;0.250;2023-01-23T14:34:17;3.70;99.90
5962;DHT22;3007;50.770;0.250;2023-01-23T14:36:45;3.70;99.90
5962;DHT22;3007;50.770;0.250;2023-01-23T14:39:17;3.80;99.90
5962;DHT22;3007;50.770;0.250;2023-01-23T14:41:45;3.70;99.90
5962;DHT22;3007;50.770;0.250;2023-01-23T14:44:19;3.70;99.90
5962;DHT22;3007;50.770;0.250;2023-01-23T14:46:50;3.70;99.90
5962;DHT22;3007;50.770;0.250;2023-01-23T14:49:23;3.70;99.90
5962;DHT22;3007;50.770;0.250;2023-01-23T14:51:55;3.60;99.90
5962;DHT22;3007;50.770;0.250;2023-01-23T14:54:24;3.60;99.90
5962;DHT22;3007;50.770;0.250;2023-01-23T14:56:53;3.60;99.90
5962;DHT22;3007;50.770;0.250;2023-01-23T14:59:25;3.60;99.90
5962;DHT22;3007;50.770;0.250;2023-01-23T15:01:53;3.60;99.90
5962;DHT22;3007;50.770;0.250;2023-01-23T15:04:22;3.60;99.90
5962;DHT22;3007;50.770;0.250;2023-01-23T15:06:51;3.60;99.90
5962;DHT22;3007;50.770;0.250;2023-01-23T15:09:25;3.60;99.90
5962;DHT22;3007;50.770;0.250;2023-01-23T15:11:54;3.60;99.90
5962;DHT22;3007;50.770;0.250;2023-01-23T15:14:26;3.60;99.90
5962;DHT22;3007;50.770;0.250;2023-01-23T15:17:01;3.60;99.90
5962;DHT22;3007;50.770;0.250;2023-01-23T15:19:28;3.60;99.90
5962;DHT22;3007;50.770;0.250;2023-01-23T15:22:07;3.60;99.90
5962;DHT22;3007;50.770;0.250;2023-01-23T15:24:35;3.60;99.90
5962;DHT22;3007;50.770;0.250;2023-01-23T15:27:22;3.60;99.90
5962;DHT22;3007;50.770;0.250;2023-01-23T15:29:49;3.60;99.90
5962;DHT22;3007;50.770;0.250;2023-01-23T15:32:24;3.60;99.90
5962;DHT22;3007;50.770;0.250;2023-01-23T15:34:52;3.60;99.90
5962;DHT22;3007;50.770;0.250;2023-01-23T15:37:24;3.60;99.90
5962;DHT22;3007;50.770;0.250;2023-01-23T15:39:54;3.50;99.90
5962;DHT22;3007;50.770;0.250;2023-01-23T15:42:27;3.50;99.90
5962;DHT22;3007;50.770;0.250;2023-01-23T15:44:56;3.60;99.90
5962;DHT22;3007;50.770;0.250;2023-01-23T15:47:26;3.50;99.90
5962;DHT22;3007;50.770;0.250;2023-01-23T15:49:53;3.50;99.90
5962;DHT22;3007;50.770;0.250;2023-01-23T15:52:22;3.50;99.90
5962;DHT22;3007;50.770;0.250;2023-01-23T15:54:52;3.50;99.90
5962;DHT22;3007;50.770;0.250;2023-01-23T15:57:20;3.50;99.90
5962;DHT22;3007;50.770;0.250;2023-01-23T15:59:47;3.50;99.90
5962;DHT22;3007;50.770;0.250;2023-01-23T16:02:16;3.50;99.90
5962;DHT22;3007;50.770;0.250;2023-01-23T16:04:43;3.50;99.90
5962;DHT22;3007;50.770;0.250;2023-01-23T16:07:22;3.50;99.90
5962;DHT22;3007;50.770;0.250;2023-01-23T16:09:49;3.50;99.90
5962;DHT22;3007;50.770;0.250;2023-01-23T16:12:19;3.50;99.90
5962;DHT22;3007;50.770;0.250;2023-01-23T16:14:46;3.50;99.90
5962;DHT22;3007;50.770;0.250;2023-01-23T16:17:13;3.50;99.90
5962;DHT22;3007;50.770;0.250;2023-01-23T16:19:40;3.50;99.90
5962;DHT22;3007;50.770;0.250;2023-01-23T16:22:14;3.50;99.90
5962;DHT22;3007;50.770;0.250;2023-01-23T16:24:43;3.50;99.90
5962;DHT22;3007;50.770;0.250;2023-01-23T16:27:15;3.50;99.90
5962;DHT22;3007;50.770;0.250;2023-01-23T16:29:44;3.50;99.90
5962;DHT22;3007;50.770;0.250;2023-01-23T16:32:13;3.50;99.90
5962;DHT22;3007;50.770;0.250;2023-01-23T16:34:40;3.50;99.90
5962;DHT22;3007;50.770;0.250;2023-01-23T16:37:12;3.50;99.90
5962;DHT22;3007;50.770;0.250;2023-01-23T16:39:40;3.50;99.90
5962;DHT22;3007;50.770;0.250;2023-01-23T16:42:13;3.50;99.90
5962;DHT22;3007;50.770;0.250;2023-01-23T16:44:41;3.50;99.90
5962;DHT22;3007;50.770;0.250;2023-01-23T16:47:09;3.50;99.90
5962;DHT22;3007;50.770;0.250;2023-01-23T16:49:36;3.50;99.90
5962;DHT22;3007;50.770;0.250;2023-01-23T16:52:04;3.50;99.90
5962;DHT22;3007;50.770;0.250;2023-01-23T16:54:30;3.50;99.90
5962;DHT22;3007;50.770;0.250;2023-01-23T16:56:58;3.50;99.90
5962;DHT22;3007;50.770;0.250;2023-01-23T16:59:31;3.50;99.90
5962;DHT22;3007;50.770;0.250;2023-01-23T17:01:58;3.50;99.90
5962;DHT22;3007;50.770;0.250;2023-01-23T17:04:27;3.50;99.90
5962;DHT22;3007;50.770;0.250;2023-01-23T17:06:54;3.50;99.90
5962;DHT22;3007;50.770;0.250;2023-01-23T17:09:21;3.50;99.90
5962;DHT22;3007;50.770;0.250;2023-01-23T17:11:51;3.50;99.90
5962;DHT22;3007;50.770;0.250;2023-01-23T17:14:21;3.50;99.90
5962;DHT22;3007;50.770;0.250;2023-01-23T17:16:50;3.50;99.90
5962;DHT22;3007;50.770;0.250;2023-01-23T17:19:25;3.50;99.90
5962;DHT22;3007;50.770;0.250;2023-01-23T17:21:56;3.50;99.90
5962;DHT22;3007;50.770;0.250;2023-01-23T17:24:23;3.50;99.90
5962;DHT22;3007;50.770;0.250;2023-01-23T17:26:50;3.50;99.90
5962;DHT22;3007;50.770;0.250;2023-01-23T17:29:17;3.50;99.90
5962;DHT22;3007;50.770;0.250;2023-01-23T17:31:44;3.50;99.90
5962;DHT22;3007;50.770;0.250;2023-01-23T17:34:18;3.50;99.90
5962;DHT22;3007;50.770;0.250;2023-01-23T17:36:45;3.50;99.90
5962;DHT22;3007;50.770;0.250;2023-01-23T17:39:14;3.50;99.90
5962;DHT22;3007;50.770;0.250;2023-01-23T17:41:40;3.50;99.90
5962;DHT22;3007;50.770;0.250;2023-01-23T17:44:07;3.60;99.90
5962;DHT22;3007;50.770;0.250;2023-01-23T17:46:35;3.60;99.90
5962;DHT22;3007;50.770;0.250;2023-01-23T17:49:04;3.60;99.90
5962;DHT22;3007;50.770;0.250;2023-01-23T17:51:41;3.60;99.90
5962;DHT22;3007;50.770;0.250;2023-01-23T17:54:18;3.60;99.90
5962;DHT22;3007;50.770;0.250;2023-01-23T17:56:45;3.50;99.90
5962;DHT22;3007;50.770;0.250;2023-01-23T17:59:12;3.60;99.90
5962;DHT22;3007;50.770;0.250;2023-01-23T18:01:39;3.60;99.90
5962;DHT22;3007;50.770;0.250;2023-01-23T18:04:10;3.60;99.90
5962;DHT22;3007;50.770;0.250;2023-01-23T18:06:40;3.60;99.90
5962;DHT22;3007;50.770;0.250;2023-01-23T18:09:06;3.60;99.90
5962;DHT22;3007;50.770;0.250;2023-01-23T18:11:36;3.60;99.90
5962;DHT22;3007;50.770;0.250;2023-01-23T18:14:29;3.60;99.90
5962;DHT22;3007;50.770;0.250;2023-01-23T18:17:13;3.60;99.90
5962;DHT22;3007;50.770;0.250;2023-01-23T18:19:41;3.60;99.90
5962;DHT22;3007;50.770;0.250;2023-01-23T18:22:11;3.60;99.90
5962;DHT22;3007;50.770;0.250;2023-01-23T18:24:39;3.50;99.90
5962;DHT22;3007;50.770;0.250;2023-01-23T18:27:17;3.50;99.90
5962;DHT22;3007;50.770;0.250;2023-01-23T18:32:43;3.60;99.90
5962;DHT22;3007;50.770;0.250;2023-01-23T18:35:25;3.60;99.90
5962;DHT22;3007;50.770;0.250;2023-01-23T18:38:01;3.60;99.90
5962;DHT22;3007;50.770;0.250;2023-01-23T18:40:34;3.60;99.90
5962;DHT22;3007;50.770;0.250;2023-01-23T18:43:14;3.60;99.90
5962;DHT22;3007;50.770;0.250;2023-01-23T18:45:43;3.60;99.90
5962;DHT22;3007;50.770;0.250;2023-01-23T18:48:12;3.60;99.90
5962;DHT22;3007;50.770;0.250;2023-01-23T18:50:45;3.70;99.90
5962;DHT22;3007;50.770;0.250;2023-01-23T18:53:19;3.70;99.90
5962;DHT22;3007;50.770;0.250;2023-01-23T18:55:59;3.70;99.90
5962;DHT22;3007;50.770;0.250;2023-01-23T18:58:43;3.70;99.90
5962;DHT22;3007;50.770;0.250;2023-01-23T19:01:18;3.60;99.90
5962;DHT22;3007;50.770;0.250;2023-01-23T19:03:48;3.60;99.90
5962;DHT22;3007;50.770;0.250;2023-01-23T19:06:18;3.70;99.90
5962;DHT22;3007;50.770;0.250;2023-01-23T19:08:47;3.70;99.90
5962;DHT22;3007;50.770;0.250;2023-01-23T19:11:31;3.70;99.90
5962;DHT22;3007;50.770;0.250;2023-01-23T19:14:12;3.70;99.90
5962;DHT22;3007;50.770;0.250;2023-01-23T19:16:46;3.80;99.90
5962;DHT22;3007;50.770;0.250;2023-01-23T19:19:20;3.70;99.90
5962;DHT22;3007;50.770;0.250;2023-01-23T19:21:49;3.80;99.90
5962;DHT22;3007;50.770;0.250;2023-01-23T19:24:18;3.80;99.90
5962;DHT22;3007;50.770;0.250;2023-01-23T19:26:45;3.80;99.90
5962;DHT22;3007;50.770;0.250;2023-01-23T19:29:14;3.80;99.90
5962;DHT22;3007;50.770;0.250;2023-01-23T19:31:42;3.80;99.90
5962;DHT22;3007;50.770;0.250;2023-01-23T19:34:09;3.70;99.90
5962;DHT22;3007;50.770;0.250;2023-01-23T19:36:36;3.80;99.90
5962;DHT22;3007;50.770;0.250;2023-01-23T19:39:03;3.80;99.90
5962;DHT22;3007;50.770;0.250;2023-01-23T19:41:37;3.80;99.90
5962;DHT22;3007;50.770;0.250;2023-01-23T19:44:05;3.80;99.90
5962;DHT22;3007;50.770;0.250;2023-01-23T19:46:33;3.80;99.90
5962;DHT22;3007;50.770;0.250;2023-01-23T19:49:01;3.80;99.90
5962;DHT22;3007;50.770;0.250;2023-01-23T19:51:30;3.80;99.90
5962;DHT22;3007;50.770;0.250;2023-01-23T19:53:58;3.80;99.90
5962;DHT22;3007;50.770;0.250;2023-01-23T19:56:25;3.80;99.90
5962;DHT22;3007;50.770;0.250;2023-01-23T19:58:53;3.80;99.90
5962;DHT22;3007;50.770;0.250;2023-01-23T20:01:23;3.90;99.90
5962;DHT22;3007;50.770;0.250;2023-01-23T20:03:53;3.90;99.90
5962;DHT22;3007;50.770;0.250;2023-01-23T20:06:20;3.90;99.90
5962;DHT22;3007;50.770;0.250;2023-01-23T20:08:47;3.90;99.90
5962;DHT22;3007;50.770;0.250;2023-01-23T20:11:14;3.90;99.90
5962;DHT22;3007;50.770;0.250;2023-01-23T20:13:41;3.90;99.90
5962;DHT22;3007;50.770;0.250;2023-01-23T20:16:12;3.90;99.90
5962;DHT22;3007;50.770;0.250;2023-01-23T20:18:39;3.90;99.90
5962;DHT22;3007;50.770;0.250;2023-01-23T20:21:08;3.90;99.90
5962;DHT22;3007;50.770;0.250;2023-01-23T20:23:35;3.90;99.90
5962;DHT22;3007;50.770;0.250;2023-01-23T20:26:02;3.90;99.90
5962;DHT22;3007;50.770;0.250;2023-01-23T20:28:29;3.90;99.90
5962;DHT22;3007;50.770;0.250;2023-01-23T20:30:56;3.90;99.90
5962;DHT22;3007;50.770;0.250;2023-01-23T20:33:23;3.90;99.90
5962;DHT22;3007;50.770;0.250;2023-01-23T20:35:50;3.90;99.90
5962;DHT22;3007;50.770;0.250;2023-01-23T20:38:20;4.00;99.90
5962;DHT22;3007;50.770;0.250;2023-01-23T20:40:47;3.90;99.90
5962;DHT22;3007;50.770;0.250;2023-01-23T20:43:14;4.00;99.90
5962;DHT22;3007;50.770;0.250;2023-01-23T20:45:45;4.00;99.90
5962;DHT22;3007;50.770;0.250;2023-01-23T20:48:12;4.00;99.90
5962;DHT22;3007;50.770;0.250;2023-01-23T20:50:39;4.00;99.90
5962;DHT22;3007;50.770;0.250;2023-01-23T20:53:08;4.00;99.90
5962;DHT22;3007;50.770;0.250;2023-01-23T20:55:54;4.00;99.90
5962;DHT22;3007;50.770;0.250;2023-01-23T20:58:22;4.00;99.90
5962;DHT22;3007;50.770;0.250;2023-01-23T21:01:06;4.00;99.90
5962;DHT22;3007;50.770;0.250;2023-01-23T21:03:34;4.00;99.90
5962;DHT22;3007;50.770;0.250;2023-01-23T21:06:00;4.00;99.90
5962;DHT22;3007;50.770;0.250;2023-01-23T21:08:27;4.00;99.90
5962;DHT22;3007;50.770;0.250;2023-01-23T21:10:56;4.00;99.90
5962;DHT22;3007;50.770;0.250;2023-01-23T21:13:22;4.00;99.90
5962;DHT22;3007;50.770;0.250;2023-01-23T21:15:57;4.00;99.90
5962;DHT22;3007;50.770;0.250;2023-01-23T21:18:24;4.00;99.90
5962;DHT22;3007;50.770;0.250;2023-01-23T21:20:51;4.00;99.90
5962;DHT22;3007;50.770;0.250;2023-01-23T21:23:19;4.00;99.90
5962;DHT22;3007;50.770;0.250;2023-01-23T21:25:46;4.00;99.90
5962;DHT22;3007;50.770;0.250;2023-01-23T21:28:14;4.10;99.90
5962;DHT22;3007;50.770;0.250;2023-01-23T21:30:41;4.10;99.90
5962;DHT22;3007;50.770;0.250;2023-01-23T21:33:08;4.10;99.90
5962;DHT22;3007;50.770;0.250;2023-01-23T21:35:35;4.10;99.90
5962;DHT22;3007;50.770;0.250;2023-01-23T21:38:02;4.10;99.90
5962;DHT22;3007;50.770;0.250;2023-01-23T21:40:28;4.10;99.90
5962;DHT22;3007;50.770;0.250;2023-01-23T21:42:55;4.10;99.90
5962;DHT22;3007;50.770;0.250;2023-01-23T21:45:23;4.10;99.90
5962;DHT22;3007;50.770;0.250;2023-01-23T21:47:50;4.10;99.90
5962;DHT22;3007;50.770;0.250;2023-01-23T21:50:17;4.10;99.90
5962;DHT22;3007;50.770;0.250;2023-01-23T21:52:44;4.10;99.90
5962;DHT22;3007;50.770;0.250;2023-01-23T21:55:11;4.10;99.90
5962;DHT22;3007;50.770;0.250;2023-01-23T21:57:38;4.20;99.90
5962;DHT22;3007;50.770;0.250;2023-01-23T22:00:09;4.10;99.90
5962;DHT22;3007;50.770;0.250;2023-01-23T22:02:55;4.10;99.90
5962;DHT22;3007;50.770;0.250;2023-01-23T22:05:22;4.10;99.90
5962;DHT22;3007;50.770;0.250;2023-01-23T22:07:49;4.10;99.90
5962;DHT22;3007;50.770;0.250;2023-01-23T22:10:16;4.10;99.90
5962;DHT22;3007;50.770;0.250;2023-01-23T22:12:43;4.10;99.90
5962;DHT22;3007;50.770;0.250;2023-01-23T22:15:10;4.20;99.90
5962;DHT22;3007;50.770;0.250;2023-01-23T22:17:37;4.20;99.90
5962;DHT22;3007;50.770;0.250;2023-01-23T22:20:06;4.20;99.90
5962;DHT22;3007;50.770;0.250;2023-01-23T22:22:34;4.20;99.90
5962;DHT22;3007;50.770;0.250;2023-01-23T22:25:00;4.20;99.90
5962;DHT22;3007;50.770;0.250;2023-01-23T22:27:27;4.20;99.90
5962;DHT22;3007;50.770;0.250;2023-01-23T22:29:54;4.20;99.90
5962;DHT22;3007;50.770;0.250;2023-01-23T22:32:21;4.20;99.90
5962;DHT22;3007;50.770;0.250;2023-01-23T22:34:48;4.20;99.90
5962;DHT22;3007;50.770;0.250;2023-01-23T22:37:16;4.20;99.90
5962;DHT22;3007;50.770;0.250;2023-01-23T22:39:43;4.20;99.90
5962;DHT22;3007;50.770;0.250;2023-01-23T22:42:10;4.20;99.90
5962;DHT22;3007;50.770;0.250;2023-01-23T22:44:37;4.30;99.90
5962;DHT22;3007;50.770;0.250;2023-01-23T22:47:04;4.30;99.90
5962;DHT22;3007;50.770;0.250;2023-01-23T22:49:31;4.30;99.90
5962;DHT22;3007;50.770;0.250;2023-01-23T22:51:58;4.30;99.90
5962;DHT22;3007;50.770;0.250;2023-01-23T22:54:26;4.30;99.90
5962;DHT22;3007;50.770;0.250;2023-01-23T22:56:53;4.30;99.90
5962;DHT22;3007;50.770;0.250;2023-01-23T22:59:20;4.30;99.90
5962;DHT22;3007;50.770;0.250;2023-01-23T23:01:47;4.20;99.90
5962;DHT22;3007;50.770;0.250;2023-01-23T23:04:14;4.30;99.90
5962;DHT22;3007;50.770;0.250;2023-01-23T23:06:41;4.30;99.90
5962;DHT22;3007;50.770;0.250;2023-01-23T23:09:07;4.30;99.90
5962;DHT22;3007;50.770;0.250;2023-01-23T23:11:38;4.30;99.90
5962;DHT22;3007;50.770;0.250;2023-01-23T23:14:05;4.30;99.90
5962;DHT22;3007;50.770;0.250;2023-01-23T23:16:32;4.30;99.90
5962;DHT22;3007;50.770;0.250;2023-01-23T23:19:01;4.30;99.90
5962;DHT22;3007;50.770;0.250;2023-01-23T23:21:31;4.40;99.90
5962;DHT22;3007;50.770;0.250;2023-01-23T23:23:59;4.40;99.90
5962;DHT22;3007;50.770;0.250;2023-01-23T23:26:27;4.40;99.90
5962;DHT22;3007;50.770;0.250;2023-01-23T23:28:57;4.40;99.90
5962;DHT22;3007;50.770;0.250;2023-01-23T23:31:24;4.40;99.90
5962;DHT22;3007;50.770;0.250;2023-01-23T23:33:51;4.30;99.90
5962;DHT22;3007;50.770;0.250;2023-01-23T23:36:18;4.40;99.90
5962;DHT22;3007;50.770;0.250;2023-01-23T23:38:45;4.40;99.90
5962;DHT22;3007;50.770;0.250;2023-01-23T23:41:13;4.40;99.90
5962;DHT22;3007;50.770;0.250;2023-01-23T23:43:41;4.40;99.90
5962;DHT22;3007;50.770;0.250;2023-01-23T23:46:10;4.40;99.90
5962;DHT22;3007;50.770;0.250;2023-01-23T23:48:38;4.40;99.90
5962;DHT22;3007;50.770;0.250;2023-01-23T23:51:07;4.40;99.90
5962;DHT22;3007;50.770;0.250;2023-01-23T23:53:34;4.40;99.90
5962;DHT22;3007;50.770;0.250;2023-01-23T23:56:01;4.40;99.90
5962;DHT22;3007;50.770;0.250;2023-01-23T23:58:29;4.50;99.90
